This is the latest recevied weather packets stored in our database for station/object Reichnbch. If no packets are shown the sender has not sent any weather packets the latest 10 day(s).
| Time | Temp. | Humidity | Pressure | Rain* | Wind** | Luminosity | Snow |
|---|---|---|---|---|---|---|---|
| 1777485731 | 16.11° C | 28% | 1022.8 hPa | 0 mm | - | - | - |
| 1777483931 | 17.22° C | 27% | 1022.6 hPa | 0 mm | - | - | - |
| 1777482131 | 17.78° C | 27% | 1022.3 hPa | 0 mm | - | - | - |
| 1777480336 | 18.33° C | 27% | 1022.1 hPa | 0 mm | - | - | - |
| 1777478530 | 18.89° C | 28% | 1022 hPa | 0 mm | - | - | - |
| 1777476730 | 19.44° C | 30% | 1021.8 hPa | 0 mm | - | - | - |
| 1777474931 | 20° C | 29% | 1021.7 hPa | 0 mm | - | - | - |
| 1777473135 | 20.56° C | 34% | 1021.7 hPa | 0 mm | - | - | - |
| 1777471331 | 20.56° C | 32% | 1021.6 hPa | 0 mm | - | - | - |
| 1777469531 | 20.56° C | 35% | 1021.6 hPa | 0 mm | - | - | - |
| 1777467730 | 21.11° C | 39% | 1021.5 hPa | 0 mm | - | - | - |
| 1777465932 | 21.11° C | 39% | 1021.5 hPa | 0 mm | - | - | - |
| 1777464131 | 20.56° C | 35% | 1021.7 hPa | 0 mm | - | - | - |
| 1777462330 | 20.56° C | 37% | 1021.6 hPa | 0 mm | - | - | - |
| 1777460530 | 20° C | 42% | 1021.6 hPa | 0 mm | - | - | - |
| 1777458730 | 18.89° C | 40% | 1021.8 hPa | 0 mm | - | - | - |
| 1777456931 | 18.89° C | 42% | 1021.8 hPa | 0 mm | - | - | - |
| 1777455131 | 17.78° C | 48% | 1021.7 hPa | 0 mm | - | - | - |
| 1777453332 | 16.67° C | 50% | 1021.8 hPa | 0 mm | - | - | - |
| 1777451531 | 15.56° C | 48% | 1021.9 hPa | 0 mm | - | - | - |
| 1777449731 | 14.44° C | 50% | 1022 hPa | 0 mm | - | - | - |
| 1777447931 | 13.33° C | 52% | 1021.9 hPa | 0 mm | - | - | - |
| 1777446131 | 12.78° C | 56% | 1021.9 hPa | 0 mm | - | - | - |
| 1777444331 | 11.67° C | 57% | 1021.9 hPa | 0 mm | - | - | - |
| 1777442531 | 10.56° C | 59% | 1021.8 hPa | 0 mm | - | - | - |
* Rain since midnight (hover to see other rain measurements)
** Current wind speed in m/s (hover to see current wind gust speed)